sensor_id;sensor_type;location;lat;lon;timestamp;P1;durP1;ratioP1;P2;durP2;ratioP2
19965;SDS011;10144;50.874;4.762;2023-06-14T00:01:05;12.18;;;6.25;;
19965;SDS011;10144;50.874;4.762;2023-06-14T00:03:32;13.55;;;7.05;;
19965;SDS011;10144;50.874;4.762;2023-06-14T00:06:01;12.63;;;6.30;;
19965;SDS011;10144;50.874;4.762;2023-06-14T00:08:30;16.30;;;6.72;;
19965;SDS011;10144;50.874;4.762;2023-06-14T00:10:59;13.55;;;6.30;;
19965;SDS011;10144;50.874;4.762;2023-06-14T00:13:25;13.18;;;6.45;;
19965;SDS011;10144;50.874;4.762;2023-06-14T00:15:50;11.32;;;5.95;;
19965;SDS011;10144;50.874;4.762;2023-06-14T00:21:19;11.43;;;6.78;;
19965;SDS011;10144;50.874;4.762;2023-06-14T00:26:15;11.75;;;6.43;;
19965;SDS011;10144;50.874;4.762;2023-06-14T00:28:44;11.82;;;6.85;;
19965;SDS011;10144;50.874;4.762;2023-06-14T00:31:13;15.13;;;6.85;;
19965;SDS011;10144;50.874;4.762;2023-06-14T00:33:42;14.65;;;7.25;;
19965;SDS011;10144;50.874;4.762;2023-06-14T00:36:10;12.43;;;7.28;;
19965;SDS011;10144;50.874;4.762;2023-06-14T00:38:49;12.70;;;7.10;;
19965;SDS011;10144;50.874;4.762;2023-06-14T00:41:18;14.20;;;7.05;;
19965;SDS011;10144;50.874;4.762;2023-06-14T00:46:31;13.05;;;7.43;;
19965;SDS011;10144;50.874;4.762;2023-06-14T00:48:57;11.20;;;7.05;;
19965;SDS011;10144;50.874;4.762;2023-06-14T00:51:28;16.13;;;6.95;;
19965;SDS011;10144;50.874;4.762;2023-06-14T00:53:57;11.55;;;6.95;;
19965;SDS011;10144;50.874;4.762;2023-06-14T00:56:25;17.13;;;7.13;;
19965;SDS011;10144;50.874;4.762;2023-06-14T01:01:23;12.60;;;7.45;;
19965;SDS011;10144;50.874;4.762;2023-06-14T01:07:11;14.23;;;7.28;;
19965;SDS011;10144;50.874;4.762;2023-06-14T01:12:50;13.70;;;7.15;;
19965;SDS011;10144;50.874;4.762;2023-06-14T01:15:27;14.30;;;7.00;;
19965;SDS011;10144;50.874;4.762;2023-06-14T01:18:05;12.45;;;7.03;;
19965;SDS011;10144;50.874;4.762;2023-06-14T01:23:02;14.77;;;7.60;;
19965;SDS011;10144;50.874;4.762;2023-06-14T01:25:30;10.52;;;6.93;;
19965;SDS011;10144;50.874;4.762;2023-06-14T01:27:58;11.88;;;7.40;;
19965;SDS011;10144;50.874;4.762;2023-06-14T01:33:01;12.98;;;7.00;;
19965;SDS011;10144;50.874;4.762;2023-06-14T01:35:31;13.90;;;7.45;;
19965;SDS011;10144;50.874;4.762;2023-06-14T01:37:58;16.17;;;7.32;;
19965;SDS011;10144;50.874;4.762;2023-06-14T01:40:31;10.60;;;6.90;;
19965;SDS011;10144;50.874;4.762;2023-06-14T01:43:01;12.73;;;7.15;;
19965;SDS011;10144;50.874;4.762;2023-06-14T01:45:31;14.85;;;7.30;;
19965;SDS011;10144;50.874;4.762;2023-06-14T01:47:59;11.15;;;7.43;;
19965;SDS011;10144;50.874;4.762;2023-06-14T01:50:29;14.07;;;7.70;;
19965;SDS011;10144;50.874;4.762;2023-06-14T01:52:58;13.52;;;7.30;;
19965;SDS011;10144;50.874;4.762;2023-06-14T01:55:27;14.27;;;7.75;;
19965;SDS011;10144;50.874;4.762;2023-06-14T01:57:56;15.20;;;7.90;;
19965;SDS011;10144;50.874;4.762;2023-06-14T02:00:22;15.82;;;7.43;;
19965;SDS011;10144;50.874;4.762;2023-06-14T02:02:47;15.90;;;8.18;;
19965;SDS011;10144;50.874;4.762;2023-06-14T02:05:17;18.15;;;8.20;;
19965;SDS011;10144;50.874;4.762;2023-06-14T02:07:49;15.73;;;8.13;;
19965;SDS011;10144;50.874;4.762;2023-06-14T02:12:47;12.65;;;8.07;;
19965;SDS011;10144;50.874;4.762;2023-06-14T02:15:13;16.95;;;8.55;;
19965;SDS011;10144;50.874;4.762;2023-06-14T02:17:43;14.65;;;8.27;;
19965;SDS011;10144;50.874;4.762;2023-06-14T02:20:15;13.38;;;8.00;;
19965;SDS011;10144;50.874;4.762;2023-06-14T02:22:41;17.75;;;8.73;;
19965;SDS011;10144;50.874;4.762;2023-06-14T02:25:07;13.57;;;8.48;;
19965;SDS011;10144;50.874;4.762;2023-06-14T02:27:36;17.15;;;9.05;;
19965;SDS011;10144;50.874;4.762;2023-06-14T02:32:32;18.48;;;8.88;;
19965;SDS011;10144;50.874;4.762;2023-06-14T02:35:00;15.13;;;9.00;;
19965;SDS011;10144;50.874;4.762;2023-06-14T02:40:22;14.35;;;8.45;;
19965;SDS011;10144;50.874;4.762;2023-06-14T02:42:54;16.30;;;8.80;;
19965;SDS011;10144;50.874;4.762;2023-06-14T02:45:22;15.70;;;9.25;;
19965;SDS011;10144;50.874;4.762;2023-06-14T02:50:20;16.17;;;8.90;;
19965;SDS011;10144;50.874;4.762;2023-06-14T02:55:17;17.08;;;9.30;;
19965;SDS011;10144;50.874;4.762;2023-06-14T02:57:47;21.25;;;9.40;;
19965;SDS011;10144;50.874;4.762;2023-06-14T03:02:42;15.93;;;9.07;;
19965;SDS011;10144;50.874;4.762;2023-06-14T03:05:11;16.80;;;9.23;;
19965;SDS011;10144;50.874;4.762;2023-06-14T03:07:41;20.30;;;9.20;;
19965;SDS011;10144;50.874;4.762;2023-06-14T03:10:11;15.98;;;9.30;;
19965;SDS011;10144;50.874;4.762;2023-06-14T03:12:39;15.38;;;8.90;;
19965;SDS011;10144;50.874;4.762;2023-06-14T03:15:07;18.38;;;9.60;;
19965;SDS011;10144;50.874;4.762;2023-06-14T03:17:37;19.45;;;9.30;;
19965;SDS011;10144;50.874;4.762;2023-06-14T03:20:09;16.80;;;9.75;;
19965;SDS011;10144;50.874;4.762;2023-06-14T03:22:37;18.23;;;9.13;;
19965;SDS011;10144;50.874;4.762;2023-06-14T03:27:49;20.77;;;9.57;;
19965;SDS011;10144;50.874;4.762;2023-06-14T03:30:21;17.67;;;9.05;;
19965;SDS011;10144;50.874;4.762;2023-06-14T03:35:21;17.67;;;9.65;;
19965;SDS011;10144;50.874;4.762;2023-06-14T03:37:48;17.15;;;9.90;;
19965;SDS011;10144;50.874;4.762;2023-06-14T03:40:17;20.27;;;9.90;;
19965;SDS011;10144;50.874;4.762;2023-06-14T03:45:16;17.77;;;9.73;;
19965;SDS011;10144;50.874;4.762;2023-06-14T03:50:17;20.00;;;10.30;;
19965;SDS011;10144;50.874;4.762;2023-06-14T03:52:44;17.33;;;9.70;;
19965;SDS011;10144;50.874;4.762;2023-06-14T03:55:13;22.17;;;9.93;;
19965;SDS011;10144;50.874;4.762;2023-06-14T03:57:41;20.98;;;9.93;;
19965;SDS011;10144;50.874;4.762;2023-06-14T04:02:51;18.83;;;10.25;;
19965;SDS011;10144;50.874;4.762;2023-06-14T04:05:17;21.67;;;10.38;;
19965;SDS011;10144;50.874;4.762;2023-06-14T04:07:46;17.30;;;9.55;;
19965;SDS011;10144;50.874;4.762;2023-06-14T04:10:13;16.50;;;9.90;;
19965;SDS011;10144;50.874;4.762;2023-06-14T04:15:09;17.13;;;9.40;;
19965;SDS011;10144;50.874;4.762;2023-06-14T04:17:47;21.80;;;9.45;;
19965;SDS011;10144;50.874;4.762;2023-06-14T04:20:19;20.13;;;9.70;;
19965;SDS011;10144;50.874;4.762;2023-06-14T04:22:45;18.75;;;10.13;;
19965;SDS011;10144;50.874;4.762;2023-06-14T04:25:10;21.05;;;9.45;;
19965;SDS011;10144;50.874;4.762;2023-06-14T04:27:40;21.08;;;9.40;;
19965;SDS011;10144;50.874;4.762;2023-06-14T04:30:12;18.98;;;9.85;;
19965;SDS011;10144;50.874;4.762;2023-06-14T04:32:40;19.67;;;9.90;;
19965;SDS011;10144;50.874;4.762;2023-06-14T04:35:13;18.70;;;9.82;;
19965;SDS011;10144;50.874;4.762;2023-06-14T04:45:16;18.30;;;9.30;;
19965;SDS011;10144;50.874;4.762;2023-06-14T04:47:45;19.77;;;9.88;;
19965;SDS011;10144;50.874;4.762;2023-06-14T04:50:11;19.77;;;9.85;;
19965;SDS011;10144;50.874;4.762;2023-06-14T04:52:41;17.35;;;9.88;;
19965;SDS011;10144;50.874;4.762;2023-06-14T04:55:09;17.88;;;9.88;;
19965;SDS011;10144;50.874;4.762;2023-06-14T04:57:36;18.67;;;9.95;;
19965;SDS011;10144;50.874;4.762;2023-06-14T05:02:45;21.05;;;9.55;;
19965;SDS011;10144;50.874;4.762;2023-06-14T05:07:47;15.52;;;9.70;;
19965;SDS011;10144;50.874;4.762;2023-06-14T05:10:18;18.25;;;9.50;;
19965;SDS011;10144;50.874;4.762;2023-06-14T05:12:47;16.52;;;9.07;;
19965;SDS011;10144;50.874;4.762;2023-06-14T05:15:15;15.57;;;9.65;;
19965;SDS011;10144;50.874;4.762;2023-06-14T05:17:41;17.52;;;9.90;;
19965;SDS011;10144;50.874;4.762;2023-06-14T05:20:08;20.40;;;9.68;;
19965;SDS011;10144;50.874;4.762;2023-06-14T05:22:40;15.73;;;9.43;;
19965;SDS011;10144;50.874;4.762;2023-06-14T05:25:12;16.20;;;9.65;;
19965;SDS011;10144;50.874;4.762;2023-06-14T05:27:44;16.88;;;9.68;;
19965;SDS011;10144;50.874;4.762;2023-06-14T05:32:43;16.00;;;9.38;;
19965;SDS011;10144;50.874;4.762;2023-06-14T05:35:09;18.17;;;10.43;;
19965;SDS011;10144;50.874;4.762;2023-06-14T05:37:36;21.75;;;9.60;;
19965;SDS011;10144;50.874;4.762;2023-06-14T05:40:07;17.30;;;9.45;;
19965;SDS011;10144;50.874;4.762;2023-06-14T05:42:37;22.45;;;9.73;;
19965;SDS011;10144;50.874;4.762;2023-06-14T05:47:36;18.33;;;9.00;;
19965;SDS011;10144;50.874;4.762;2023-06-14T05:52:32;16.88;;;9.18;;
19965;SDS011;10144;50.874;4.762;2023-06-14T05:55:00;15.85;;;9.18;;
19965;SDS011;10144;50.874;4.762;2023-06-14T05:57:29;15.85;;;9.32;;
19965;SDS011;10144;50.874;4.762;2023-06-14T05:59:57;15.45;;;9.05;;
19965;SDS011;10144;50.874;4.762;2023-06-14T06:02:24;16.88;;;9.10;;
19965;SDS011;10144;50.874;4.762;2023-06-14T06:04:53;15.90;;;8.95;;
19965;SDS011;10144;50.874;4.762;2023-06-14T06:07:22;18.90;;;8.90;;
19965;SDS011;10144;50.874;4.762;2023-06-14T06:09:56;16.77;;;9.07;;
19965;SDS011;10144;50.874;4.762;2023-06-14T06:15:02;12.15;;;8.57;;
19965;SDS011;10144;50.874;4.762;2023-06-14T06:17:37;14.10;;;8.90;;
19965;SDS011;10144;50.874;4.762;2023-06-14T06:20:14;15.98;;;8.30;;
19965;SDS011;10144;50.874;4.762;2023-06-14T06:22:43;14.82;;;8.73;;
19965;SDS011;10144;50.874;4.762;2023-06-14T06:25:12;17.05;;;8.77;;
19965;SDS011;10144;50.874;4.762;2023-06-14T06:32:40;17.00;;;8.20;;
19965;SDS011;10144;50.874;4.762;2023-06-14T06:35:12;18.63;;;8.98;;
19965;SDS011;10144;50.874;4.762;2023-06-14T06:37:41;12.13;;;8.10;;
19965;SDS011;10144;50.874;4.762;2023-06-14T06:40:07;14.25;;;8.10;;
19965;SDS011;10144;50.874;4.762;2023-06-14T06:42:36;14.88;;;8.20;;
19965;SDS011;10144;50.874;4.762;2023-06-14T06:45:03;15.02;;;8.18;;
19965;SDS011;10144;50.874;4.762;2023-06-14T06:47:31;11.52;;;7.88;;
19965;SDS011;10144;50.874;4.762;2023-06-14T06:49:57;13.88;;;8.45;;
19965;SDS011;10144;50.874;4.762;2023-06-14T06:52:26;14.10;;;7.95;;
19965;SDS011;10144;50.874;4.762;2023-06-14T06:54:51;14.93;;;8.25;;
19965;SDS011;10144;50.874;4.762;2023-06-14T06:57:23;14.48;;;8.23;;
19965;SDS011;10144;50.874;4.762;2023-06-14T07:02:17;17.77;;;8.30;;
19965;SDS011;10144;50.874;4.762;2023-06-14T07:04:43;12.93;;;8.55;;
19965;SDS011;10144;50.874;4.762;2023-06-14T07:07:09;14.10;;;8.30;;
19965;SDS011;10144;50.874;4.762;2023-06-14T07:09:34;15.55;;;8.10;;
19965;SDS011;10144;50.874;4.762;2023-06-14T07:12:00;18.42;;;8.50;;
19965;SDS011;10144;50.874;4.762;2023-06-14T07:14:26;11.15;;;8.00;;
19965;SDS011;10144;50.874;4.762;2023-06-14T07:16:52;14.55;;;8.00;;
19965;SDS011;10144;50.874;4.762;2023-06-14T07:19:18;14.88;;;7.72;;
19965;SDS011;10144;50.874;4.762;2023-06-14T07:21:44;13.45;;;7.72;;
19965;SDS011;10144;50.874;4.762;2023-06-14T07:24:10;15.30;;;7.50;;
19965;SDS011;10144;50.874;4.762;2023-06-14T07:26:35;16.65;;;7.85;;
19965;SDS011;10144;50.874;4.762;2023-06-14T07:29:01;15.02;;;8.13;;
19965;SDS011;10144;50.874;4.762;2023-06-14T07:31:27;16.70;;;8.43;;
19965;SDS011;10144;50.874;4.762;2023-06-14T07:33:53;15.88;;;8.30;;
19965;SDS011;10144;50.874;4.762;2023-06-14T07:36:24;16.23;;;7.50;;
19965;SDS011;10144;50.874;4.762;2023-06-14T07:38:50;15.82;;;8.55;;
19965;SDS011;10144;50.874;4.762;2023-06-14T07:41:16;11.77;;;8.10;;
19965;SDS011;10144;50.874;4.762;2023-06-14T07:43:41;15.77;;;8.18;;
19965;SDS011;10144;50.874;4.762;2023-06-14T07:46:07;14.38;;;8.10;;
19965;SDS011;10144;50.874;4.762;2023-06-14T07:48:34;13.00;;;7.97;;
19965;SDS011;10144;50.874;4.762;2023-06-14T07:50:59;13.82;;;7.78;;
19965;SDS011;10144;50.874;4.762;2023-06-14T07:53:26;17.45;;;8.75;;
19965;SDS011;10144;50.874;4.762;2023-06-14T07:55:51;12.93;;;7.75;;
19965;SDS011;10144;50.874;4.762;2023-06-14T07:58:17;20.05;;;8.10;;
19965;SDS011;10144;50.874;4.762;2023-06-14T08:00:43;16.20;;;8.65;;
19965;SDS011;10144;50.874;4.762;2023-06-14T08:03:08;13.60;;;9.02;;
19965;SDS011;10144;50.874;4.762;2023-06-14T08:05:34;15.32;;;8.65;;
19965;SDS011;10144;50.874;4.762;2023-06-14T08:08:00;14.68;;;8.25;;
19965;SDS011;10144;50.874;4.762;2023-06-14T08:10:26;13.30;;;8.27;;
19965;SDS011;10144;50.874;4.762;2023-06-14T08:12:52;10.65;;;8.00;;
19965;SDS011;10144;50.874;4.762;2023-06-14T08:15:18;13.50;;;8.93;;
19965;SDS011;10144;50.874;4.762;2023-06-14T08:17:43;13.98;;;9.63;;
19965;SDS011;10144;50.874;4.762;2023-06-14T08:20:10;13.68;;;8.63;;
19965;SDS011;10144;50.874;4.762;2023-06-14T08:22:36;13.95;;;9.02;;
19965;SDS011;10144;50.874;4.762;2023-06-14T08:25:02;18.45;;;9.75;;
19965;SDS011;10144;50.874;4.762;2023-06-14T08:27:28;17.20;;;8.90;;
19965;SDS011;10144;50.874;4.762;2023-06-14T08:29:54;16.35;;;9.10;;
19965;SDS011;10144;50.874;4.762;2023-06-14T08:32:21;15.32;;;8.95;;
19965;SDS011;10144;50.874;4.762;2023-06-14T08:34:47;13.98;;;8.68;;
19965;SDS011;10144;50.874;4.762;2023-06-14T08:37:12;16.63;;;9.88;;
19965;SDS011;10144;50.874;4.762;2023-06-14T08:39:38;16.45;;;8.38;;
19965;SDS011;10144;50.874;4.762;2023-06-14T08:42:04;13.40;;;8.27;;
19965;SDS011;10144;50.874;4.762;2023-06-14T08:44:32;16.55;;;8.98;;
19965;SDS011;10144;50.874;4.762;2023-06-14T08:46:59;13.98;;;8.68;;
19965;SDS011;10144;50.874;4.762;2023-06-14T08:49:25;11.30;;;8.25;;
19965;SDS011;10144;50.874;4.762;2023-06-14T08:51:57;12.15;;;8.35;;
19965;SDS011;10144;50.874;4.762;2023-06-14T08:54:25;13.40;;;8.48;;
19965;SDS011;10144;50.874;4.762;2023-06-14T08:57:00;14.60;;;9.85;;
19965;SDS011;10144;50.874;4.762;2023-06-14T08:59:27;13.23;;;8.77;;
19965;SDS011;10144;50.874;4.762;2023-06-14T09:01:53;16.10;;;8.98;;
19965;SDS011;10144;50.874;4.762;2023-06-14T09:04:22;14.00;;;8.80;;
19965;SDS011;10144;50.874;4.762;2023-06-14T09:06:50;20.92;;;8.60;;
19965;SDS011;10144;50.874;4.762;2023-06-14T09:09:20;18.38;;;8.70;;
19965;SDS011;10144;50.874;4.762;2023-06-14T09:11:47;13.05;;;7.90;;
19965;SDS011;10144;50.874;4.762;2023-06-14T09:14:14;11.75;;;8.05;;
19965;SDS011;10144;50.874;4.762;2023-06-14T09:16:40;12.18;;;8.57;;
19965;SDS011;10144;50.874;4.762;2023-06-14T09:19:06;13.23;;;8.38;;
19965;SDS011;10144;50.874;4.762;2023-06-14T09:21:33;11.98;;;8.63;;
19965;SDS011;10144;50.874;4.762;2023-06-14T09:23:59;18.90;;;8.63;;
19965;SDS011;10144;50.874;4.762;2023-06-14T09:26:25;12.40;;;7.85;;
19965;SDS011;10144;50.874;4.762;2023-06-14T09:28:52;15.88;;;7.55;;
19965;SDS011;10144;50.874;4.762;2023-06-14T09:31:19;15.23;;;8.38;;
19965;SDS011;10144;50.874;4.762;2023-06-14T09:33:46;12.25;;;8.20;;
19965;SDS011;10144;50.874;4.762;2023-06-14T09:36:22;10.35;;;7.70;;
19965;SDS011;10144;50.874;4.762;2023-06-14T09:41:19;15.45;;;7.50;;
19965;SDS011;10144;50.874;4.762;2023-06-14T09:43:46;11.43;;;7.30;;
19965;SDS011;10144;50.874;4.762;2023-06-14T09:46:13;11.07;;;7.10;;
19965;SDS011;10144;50.874;4.762;2023-06-14T09:48:39;9.82;;;7.55;;
19965;SDS011;10144;50.874;4.762;2023-06-14T09:51:07;13.80;;;7.10;;
19965;SDS011;10144;50.874;4.762;2023-06-14T09:53:35;14.32;;;7.20;;
19965;SDS011;10144;50.874;4.762;2023-06-14T09:56:02;12.85;;;6.30;;
19965;SDS011;10144;50.874;4.762;2023-06-14T09:58:30;11.85;;;5.93;;
19965;SDS011;10144;50.874;4.762;2023-06-14T10:00:59;8.63;;;5.95;;
19965;SDS011;10144;50.874;4.762;2023-06-14T10:03:28;13.80;;;6.35;;
19965;SDS011;10144;50.874;4.762;2023-06-14T10:05:55;13.18;;;7.10;;
19965;SDS011;10144;50.874;4.762;2023-06-14T10:08:26;13.90;;;7.03;;
19965;SDS011;10144;50.874;4.762;2023-06-14T10:10:57;11.55;;;6.80;;
19965;SDS011;10144;50.874;4.762;2023-06-14T10:13:26;9.68;;;6.10;;
19965;SDS011;10144;50.874;4.762;2023-06-14T10:19:07;10.55;;;6.50;;
19965;SDS011;10144;50.874;4.762;2023-06-14T10:22:04;10.10;;;6.47;;
19965;SDS011;10144;50.874;4.762;2023-06-14T10:24:45;14.75;;;6.20;;
19965;SDS011;10144;50.874;4.762;2023-06-14T10:27:15;13.52;;;6.65;;
19965;SDS011;10144;50.874;4.762;2023-06-14T10:32:29;7.68;;;5.95;;
19965;SDS011;10144;50.874;4.762;2023-06-14T10:35:06;15.93;;;6.50;;
19965;SDS011;10144;50.874;4.762;2023-06-14T10:37:32;12.27;;;5.90;;
19965;SDS011;10144;50.874;4.762;2023-06-14T10:39:58;12.07;;;5.88;;
19965;SDS011;10144;50.874;4.762;2023-06-14T10:42:27;16.95;;;6.07;;
19965;SDS011;10144;50.874;4.762;2023-06-14T10:44:57;12.48;;;6.10;;
19965;SDS011;10144;50.874;4.762;2023-06-14T10:47:35;9.88;;;5.32;;
19965;SDS011;10144;50.874;4.762;2023-06-14T10:50:13;9.27;;;5.43;;
19965;SDS011;10144;50.874;4.762;2023-06-14T10:52:45;12.73;;;5.82;;
19965;SDS011;10144;50.874;4.762;2023-06-14T10:55:14;11.00;;;5.13;;
19965;SDS011;10144;50.874;4.762;2023-06-14T10:57:46;8.45;;;5.65;;
19965;SDS011;10144;50.874;4.762;2023-06-14T11:00:20;9.38;;;5.30;;
19965;SDS011;10144;50.874;4.762;2023-06-14T11:05:57;12.60;;;5.40;;
19965;SDS011;10144;50.874;4.762;2023-06-14T11:08:40;11.50;;;5.20;;
19965;SDS011;10144;50.874;4.762;2023-06-14T11:11:23;9.70;;;4.88;;
19965;SDS011;10144;50.874;4.762;2023-06-14T11:13:55;6.47;;;4.60;;
19965;SDS011;10144;50.874;4.762;2023-06-14T11:16:21;16.67;;;5.40;;
19965;SDS011;10144;50.874;4.762;2023-06-14T11:18:52;14.13;;;5.38;;
19965;SDS011;10144;50.874;4.762;2023-06-14T11:21:18;9.25;;;5.22;;
19965;SDS011;10144;50.874;4.762;2023-06-14T11:23:53;10.27;;;5.50;;
19965;SDS011;10144;50.874;4.762;2023-06-14T11:26:27;11.00;;;5.68;;
19965;SDS011;10144;50.874;4.762;2023-06-14T11:28:58;9.40;;;5.30;;
19965;SDS011;10144;50.874;4.762;2023-06-14T11:31:25;11.25;;;5.30;;
19965;SDS011;10144;50.874;4.762;2023-06-14T11:33:55;9.35;;;5.35;;
19965;SDS011;10144;50.874;4.762;2023-06-14T11:36:22;10.02;;;5.15;;
19965;SDS011;10144;50.874;4.762;2023-06-14T11:39:02;10.38;;;5.20;;
19965;SDS011;10144;50.874;4.762;2023-06-14T11:41:43;9.38;;;4.95;;
19965;SDS011;10144;50.874;4.762;2023-06-14T11:44:10;9.20;;;4.70;;
19965;SDS011;10144;50.874;4.762;2023-06-14T11:46:36;7.80;;;4.97;;
19965;SDS011;10144;50.874;4.762;2023-06-14T11:49:03;10.48;;;4.60;;
19965;SDS011;10144;50.874;4.762;2023-06-14T11:51:32;10.85;;;4.88;;
19965;SDS011;10144;50.874;4.762;2023-06-14T11:53:59;8.93;;;4.57;;
19965;SDS011;10144;50.874;4.762;2023-06-14T11:56:27;8.45;;;4.90;;
19965;SDS011;10144;50.874;4.762;2023-06-14T11:58:53;10.55;;;5.07;;
19965;SDS011;10144;50.874;4.762;2023-06-14T12:01:22;8.93;;;5.03;;
19965;SDS011;10144;50.874;4.762;2023-06-14T12:03:48;8.13;;;4.47;;
19965;SDS011;10144;50.874;4.762;2023-06-14T12:06:14;7.15;;;4.38;;
19965;SDS011;10144;50.874;4.762;2023-06-14T12:08:40;9.45;;;4.38;;
19965;SDS011;10144;50.874;4.762;2023-06-14T12:11:13;9.07;;;4.50;;
19965;SDS011;10144;50.874;4.762;2023-06-14T12:13:39;9.23;;;4.68;;
19965;SDS011;10144;50.874;4.762;2023-06-14T12:16:08;7.03;;;4.50;;
19965;SDS011;10144;50.874;4.762;2023-06-14T12:18:37;9.25;;;3.97;;
19965;SDS011;10144;50.874;4.762;2023-06-14T12:21:05;6.88;;;4.00;;
19965;SDS011;10144;50.874;4.762;2023-06-14T12:23:47;7.47;;;3.97;;
19965;SDS011;10144;50.874;4.762;2023-06-14T12:26:17;10.55;;;3.70;;
19965;SDS011;10144;50.874;4.762;2023-06-14T12:28:44;8.13;;;4.13;;
19965;SDS011;10144;50.874;4.762;2023-06-14T12:31:11;8.48;;;3.90;;
19965;SDS011;10144;50.874;4.762;2023-06-14T12:33:39;8.05;;;3.80;;
19965;SDS011;10144;50.874;4.762;2023-06-14T12:36:09;6.97;;;4.05;;
19965;SDS011;10144;50.874;4.762;2023-06-14T12:38:35;10.23;;;3.42;;
19965;SDS011;10144;50.874;4.762;2023-06-14T12:41:02;7.88;;;4.15;;
19965;SDS011;10144;50.874;4.762;2023-06-14T12:43:28;8.15;;;3.38;;
19965;SDS011;10144;50.874;4.762;2023-06-14T12:45:53;6.85;;;3.58;;
19965;SDS011;10144;50.874;4.762;2023-06-14T12:48:19;6.35;;;3.75;;
19965;SDS011;10144;50.874;4.762;2023-06-14T12:50:45;6.13;;;3.35;;
19965;SDS011;10144;50.874;4.762;2023-06-14T12:53:11;5.45;;;2.70;;
19965;SDS011;10144;50.874;4.762;2023-06-14T12:55:37;8.80;;;3.20;;
19965;SDS011;10144;50.874;4.762;2023-06-14T12:58:02;4.10;;;2.80;;
19965;SDS011;10144;50.874;4.762;2023-06-14T13:00:28;8.88;;;2.78;;
19965;SDS011;10144;50.874;4.762;2023-06-14T13:02:55;5.20;;;2.47;;
19965;SDS011;10144;50.874;4.762;2023-06-14T13:05:24;7.82;;;2.47;;
19965;SDS011;10144;50.874;4.762;2023-06-14T13:07:50;8.07;;;2.53;;
19965;SDS011;10144;50.874;4.762;2023-06-14T13:10:16;6.35;;;2.35;;
19965;SDS011;10144;50.874;4.762;2023-06-14T13:12:42;10.30;;;2.55;;
19965;SDS011;10144;50.874;4.762;2023-06-14T13:15:08;4.93;;;2.20;;
19965;SDS011;10144;50.874;4.762;2023-06-14T13:17:35;6.93;;;2.38;;
19965;SDS011;10144;50.874;4.762;2023-06-14T13:20:07;6.95;;;2.08;;
19965;SDS011;10144;50.874;4.762;2023-06-14T13:22:34;4.88;;;2.38;;
19965;SDS011;10144;50.874;4.762;2023-06-14T13:25:00;3.92;;;2.00;;
19965;SDS011;10144;50.874;4.762;2023-06-14T13:27:26;4.07;;;2.10;;
19965;SDS011;10144;50.874;4.762;2023-06-14T13:29:53;2.88;;;2.10;;
19965;SDS011;10144;50.874;4.762;2023-06-14T13:32:20;5.57;;;1.80;;
19965;SDS011;10144;50.874;4.762;2023-06-14T13:34:46;4.20;;;2.15;;
19965;SDS011;10144;50.874;4.762;2023-06-14T13:37:12;9.40;;;2.05;;
19965;SDS011;10144;50.874;4.762;2023-06-14T13:39:38;12.32;;;2.03;;
19965;SDS011;10144;50.874;4.762;2023-06-14T13:42:04;7.40;;;2.17;;
19965;SDS011;10144;50.874;4.762;2023-06-14T13:44:29;5.32;;;2.15;;
19965;SDS011;10144;50.874;4.762;2023-06-14T13:46:55;7.25;;;1.70;;
19965;SDS011;10144;50.874;4.762;2023-06-14T13:49:21;5.10;;;2.03;;
19965;SDS011;10144;50.874;4.762;2023-06-14T13:51:47;5.65;;;2.03;;
19965;SDS011;10144;50.874;4.762;2023-06-14T13:54:13;6.70;;;1.92;;
19965;SDS011;10144;50.874;4.762;2023-06-14T13:56:41;7.28;;;2.30;;
19965;SDS011;10144;50.874;4.762;2023-06-14T13:59:07;8.15;;;2.10;;
19965;SDS011;10144;50.874;4.762;2023-06-14T14:01:32;4.63;;;2.00;;
19965;SDS011;10144;50.874;4.762;2023-06-14T14:03:58;9.35;;;2.30;;
19965;SDS011;10144;50.874;4.762;2023-06-14T14:06:25;5.50;;;2.22;;
19965;SDS011;10144;50.874;4.762;2023-06-14T14:08:51;4.60;;;2.10;;
19965;SDS011;10144;50.874;4.762;2023-06-14T14:11:17;5.70;;;2.30;;
19965;SDS011;10144;50.874;4.762;2023-06-14T14:13:43;6.43;;;1.98;;
19965;SDS011;10144;50.874;4.762;2023-06-14T14:16:10;4.00;;;2.33;;
19965;SDS011;10144;50.874;4.762;2023-06-14T14:18:36;6.35;;;2.15;;
19965;SDS011;10144;50.874;4.762;2023-06-14T14:21:02;7.05;;;2.20;;
19965;SDS011;10144;50.874;4.762;2023-06-14T14:23:28;5.05;;;2.00;;
19965;SDS011;10144;50.874;4.762;2023-06-14T14:25:54;4.20;;;2.28;;
19965;SDS011;10144;50.874;4.762;2023-06-14T14:28:23;8.50;;;2.15;;
19965;SDS011;10144;50.874;4.762;2023-06-14T14:30:51;6.03;;;2.20;;
19965;SDS011;10144;50.874;4.762;2023-06-14T14:33:19;6.28;;;2.50;;
19965;SDS011;10144;50.874;4.762;2023-06-14T14:35:47;5.53;;;2.63;;
19965;SDS011;10144;50.874;4.762;2023-06-14T14:38:19;4.28;;;2.20;;
19965;SDS011;10144;50.874;4.762;2023-06-14T14:40:44;3.55;;;2.30;;
19965;SDS011;10144;50.874;4.762;2023-06-14T14:43:10;7.63;;;2.45;;
19965;SDS011;10144;50.874;4.762;2023-06-14T14:45:36;7.07;;;2.20;;
19965;SDS011;10144;50.874;4.762;2023-06-14T14:48:02;5.60;;;2.25;;
19965;SDS011;10144;50.874;4.762;2023-06-14T14:50:28;5.75;;;2.33;;
19965;SDS011;10144;50.874;4.762;2023-06-14T14:52:54;6.90;;;2.35;;
19965;SDS011;10144;50.874;4.762;2023-06-14T14:55:21;7.97;;;2.63;;
19965;SDS011;10144;50.874;4.762;2023-06-14T14:57:47;5.28;;;2.40;;
19965;SDS011;10144;50.874;4.762;2023-06-14T15:00:13;6.93;;;2.20;;
19965;SDS011;10144;50.874;4.762;2023-06-14T15:02:39;8.93;;;2.58;;
19965;SDS011;10144;50.874;4.762;2023-06-14T15:05:05;3.05;;;2.20;;
19965;SDS011;10144;50.874;4.762;2023-06-14T15:07:31;5.70;;;2.55;;
19965;SDS011;10144;50.874;4.762;2023-06-14T15:09:57;7.78;;;2.67;;
19965;SDS011;10144;50.874;4.762;2023-06-14T15:12:22;6.72;;;2.40;;
19965;SDS011;10144;50.874;4.762;2023-06-14T15:14:51;5.38;;;2.38;;
19965;SDS011;10144;50.874;4.762;2023-06-14T15:17:18;11.32;;;2.25;;
19965;SDS011;10144;50.874;4.762;2023-06-14T15:19:45;4.70;;;2.47;;
19965;SDS011;10144;50.874;4.762;2023-06-14T15:24:44;8.50;;;2.10;;
19965;SDS011;10144;50.874;4.762;2023-06-14T15:27:14;3.90;;;2.45;;
19965;SDS011;10144;50.874;4.762;2023-06-14T15:29:46;4.85;;;2.40;;
19965;SDS011;10144;50.874;4.762;2023-06-14T15:32:12;10.20;;;2.40;;
19965;SDS011;10144;50.874;4.762;2023-06-14T15:34:37;3.88;;;2.03;;
19965;SDS011;10144;50.874;4.762;2023-06-14T15:37:04;6.25;;;2.40;;
19965;SDS011;10144;50.874;4.762;2023-06-14T15:39:33;8.32;;;2.38;;
19965;SDS011;10144;50.874;4.762;2023-06-14T15:41:59;6.82;;;2.00;;
19965;SDS011;10144;50.874;4.762;2023-06-14T15:44:25;5.70;;;2.30;;
19965;SDS011;10144;50.874;4.762;2023-06-14T15:46:51;3.15;;;2.28;;
19965;SDS011;10144;50.874;4.762;2023-06-14T15:49:17;5.55;;;2.20;;
19965;SDS011;10144;50.874;4.762;2023-06-14T15:51:44;7.65;;;2.20;;
19965;SDS011;10144;50.874;4.762;2023-06-14T15:54:10;4.65;;;2.08;;
19965;SDS011;10144;50.874;4.762;2023-06-14T15:56:35;6.45;;;2.20;;
19965;SDS011;10144;50.874;4.762;2023-06-14T15:59:01;5.85;;;2.30;;
19965;SDS011;10144;50.874;4.762;2023-06-14T16:01:27;4.78;;;2.03;;
19965;SDS011;10144;50.874;4.762;2023-06-14T16:03:53;6.22;;;1.95;;
19965;SDS011;10144;50.874;4.762;2023-06-14T16:06:21;5.07;;;2.03;;
19965;SDS011;10144;50.874;4.762;2023-06-14T16:08:46;3.30;;;1.80;;
19965;SDS011;10144;50.874;4.762;2023-06-14T16:11:12;6.25;;;2.08;;
19965;SDS011;10144;50.874;4.762;2023-06-14T16:13:40;6.22;;;2.00;;
19965;SDS011;10144;50.874;4.762;2023-06-14T16:16:06;3.13;;;1.80;;
19965;SDS011;10144;50.874;4.762;2023-06-14T16:18:34;6.57;;;2.00;;
19965;SDS011;10144;50.874;4.762;2023-06-14T16:20:59;2.40;;;1.80;;